createdAt,value
2022-12-24T00:01:05.244Z,6.03
2022-12-24T00:03:32.801Z,7.72
2022-12-24T00:05:59.991Z,5.53
2022-12-24T00:08:27.080Z,5.85
2022-12-24T00:10:54.753Z,6.22
2022-12-24T00:13:22.120Z,5.50
2022-12-24T00:15:49.571Z,5.97
2022-12-24T00:18:16.840Z,5.88
2022-12-24T00:20:48.465Z,6.43
2022-12-24T00:23:16.665Z,6.35
2022-12-24T00:25:44.241Z,5.53
2022-12-24T00:28:11.353Z,5.90
2022-12-24T00:30:39.880Z,6.65
2022-12-24T00:33:07.427Z,5.95
2022-12-24T00:35:36.013Z,5.32
2022-12-24T00:38:04.041Z,5.63
2022-12-24T00:40:32.323Z,5.18
2022-12-24T00:42:59.488Z,5.93
2022-12-24T00:45:29.690Z,6.32
2022-12-24T00:47:56.834Z,6.22
2022-12-24T00:50:23.923Z,5.38
2022-12-24T00:52:50.995Z,5.28
2022-12-24T00:55:18.145Z,5.72
2022-12-24T00:57:45.195Z,5.05
2022-12-24T01:00:12.484Z,5.00
2022-12-24T01:02:39.647Z,4.75
2022-12-24T01:05:13.325Z,6.10
2022-12-24T01:07:44.925Z,5.88
2022-12-24T01:10:14.227Z,6.50
2022-12-24T01:12:42.016Z,5.18
2022-12-24T01:15:10.439Z,6.13
2022-12-24T01:17:37.656Z,4.68
2022-12-24T01:20:06.429Z,5.97
2022-12-24T01:22:33.780Z,5.93
2022-12-24T01:25:00.857Z,4.72
2022-12-24T01:27:28.029Z,4.57
2022-12-24T01:29:55.125Z,4.57
2022-12-24T01:32:22.214Z,5.68
2022-12-24T01:34:49.317Z,4.88
2022-12-24T01:37:16.389Z,5.25
2022-12-24T01:39:43.422Z,5.30
2022-12-24T01:42:40.438Z,4.82
2022-12-24T01:45:47.242Z,4.75
2022-12-24T01:48:32.308Z,4.60
2022-12-24T01:51:24.418Z,4.70
2022-12-24T01:54:00.805Z,4.28
2022-12-24T01:56:31.043Z,4.50
2022-12-24T01:59:03.232Z,5.10
2022-12-24T02:01:30.732Z,4.07
2022-12-24T02:03:58.176Z,4.75
2022-12-24T02:06:25.745Z,4.70
2022-12-24T02:08:52.806Z,4.55
2022-12-24T02:11:22.342Z,4.35
2022-12-24T02:13:55.739Z,6.00
2022-12-24T02:16:52.329Z,3.60
2022-12-24T02:19:59.120Z,5.05
2022-12-24T02:23:04.066Z,3.63
2022-12-24T02:26:10.872Z,4.30
2022-12-24T02:29:18.182Z,4.55
2022-12-24T02:32:03.568Z,3.60
2022-12-24T02:34:40.630Z,3.88
2022-12-24T02:37:18.373Z,4.13
2022-12-24T02:40:01.803Z,4.22
2022-12-24T02:42:37.443Z,5.20
2022-12-24T02:45:14.865Z,4.22
2022-12-24T02:47:43.962Z,3.15
2022-12-24T02:50:14.578Z,3.78
2022-12-24T02:52:44.471Z,3.97
2022-12-24T02:55:16.261Z,3.78
2022-12-24T02:58:08.349Z,4.28
2022-12-24T03:01:18.704Z,4.25
2022-12-24T03:04:11.086Z,3.95
2022-12-24T03:06:57.148Z,4.38
2022-12-24T03:09:57.450Z,3.20
2022-12-24T03:12:33.780Z,3.50
2022-12-24T03:15:01.400Z,3.47
2022-12-24T03:17:28.816Z,3.67
2022-12-24T03:19:56.420Z,5.53
2022-12-24T03:22:25.619Z,3.53
2022-12-24T03:24:52.812Z,3.40
2022-12-24T03:27:20.673Z,3.55
2022-12-24T03:29:47.808Z,3.40
2022-12-24T03:32:14.987Z,3.83
2022-12-24T03:34:42.121Z,3.72
2022-12-24T03:37:09.229Z,4.20
2022-12-24T03:39:36.393Z,3.38
2022-12-24T03:42:03.528Z,2.80
2022-12-24T03:44:30.596Z,3.20
2022-12-24T03:46:57.624Z,2.85
2022-12-24T03:49:24.706Z,3.03
2022-12-24T03:51:51.770Z,3.22
2022-12-24T03:54:18.916Z,3.00
2022-12-24T03:56:45.973Z,3.53
2022-12-24T03:59:13.037Z,3.28
2022-12-24T04:01:40.217Z,2.90
2022-12-24T04:04:07.442Z,2.78
2022-12-24T04:06:34.578Z,3.05
2022-12-24T04:09:05.147Z,3.60
2022-12-24T04:11:32.996Z,3.50
2022-12-24T04:14:00.294Z,2.75
2022-12-24T04:16:27.479Z,3.55
2022-12-24T04:18:54.542Z,3.10
2022-12-24T04:21:21.621Z,2.47
2022-12-24T04:23:48.803Z,3.40
2022-12-24T04:26:16.096Z,3.05
2022-12-24T04:28:43.713Z,3.30
2022-12-24T04:31:16.708Z,2.33
2022-12-24T04:33:44.468Z,3.75
2022-12-24T04:36:14.405Z,3.33
2022-12-24T04:38:41.587Z,3.00
2022-12-24T04:41:23.293Z,4.55
2022-12-24T04:43:52.963Z,2.55
2022-12-24T04:46:23.496Z,3.08
2022-12-24T04:51:19.317Z,2.33
2022-12-24T04:53:47.069Z,2.83
2022-12-24T04:56:17.613Z,2.55
2022-12-24T05:01:18.832Z,2.65
2022-12-24T05:03:46.374Z,2.40
2022-12-24T05:06:15.721Z,2.80
2022-12-24T05:08:43.891Z,2.30
2022-12-24T05:11:16.067Z,2.33
2022-12-24T05:13:47.165Z,3.72
2022-12-24T05:16:17.323Z,3.42
2022-12-24T05:18:44.460Z,2.30
2022-12-24T05:21:15.349Z,2.33
2022-12-24T05:24:02.544Z,2.35
2022-12-24T05:26:41.580Z,2.35
2022-12-24T05:29:12.175Z,2.40
2022-12-24T05:34:08.603Z,2.22
2022-12-24T05:36:36.079Z,2.72
2022-12-24T05:39:03.878Z,2.40
2022-12-24T05:41:31.224Z,2.38
2022-12-24T05:43:58.514Z,2.35
2022-12-24T05:46:25.962Z,2.38
2022-12-24T05:48:53.592Z,2.97
2022-12-24T05:51:22.557Z,3.03
2022-12-24T05:53:51.488Z,3.17
2022-12-24T05:56:22.078Z,2.70
2022-12-24T05:58:49.470Z,2.55
2022-12-24T06:01:17.050Z,2.50
2022-12-24T06:03:44.688Z,2.70
2022-12-24T06:06:14.137Z,2.67
2022-12-24T06:08:42.519Z,4.15
2022-12-24T06:11:14.508Z,3.03
2022-12-24T06:13:43.050Z,2.40
2022-12-24T06:16:14.187Z,2.55
2022-12-24T06:18:41.943Z,2.38
2022-12-24T06:21:09.663Z,2.58
2022-12-24T06:23:38.750Z,2.90
2022-12-24T06:26:08.094Z,2.42
2022-12-24T06:28:37.393Z,3.17
2022-12-24T06:31:06.073Z,3.95
2022-12-24T06:33:34.627Z,2.92
2022-12-24T06:36:02.297Z,2.83
2022-12-24T06:38:32.410Z,2.55
2022-12-24T06:40:59.737Z,2.88
2022-12-24T06:43:27.052Z,3.05
2022-12-24T06:45:54.167Z,2.70
2022-12-24T06:48:22.108Z,3.55
2022-12-24T06:50:49.323Z,3.97
2022-12-24T06:53:16.502Z,3.15
2022-12-24T06:55:43.688Z,2.50
2022-12-24T06:58:10.977Z,3.13
2022-12-24T07:00:38.330Z,2.88
2022-12-24T07:03:05.395Z,2.40
2022-12-24T07:05:32.451Z,2.80
2022-12-24T07:07:59.554Z,2.55
2022-12-24T07:10:26.633Z,2.90
2022-12-24T07:12:53.685Z,3.20
2022-12-24T07:15:21.562Z,2.65
2022-12-24T07:17:48.708Z,2.78
2022-12-24T07:20:15.944Z,3.42
2022-12-24T07:22:43.449Z,3.53
2022-12-24T07:25:11.789Z,2.85
2022-12-24T07:27:39.513Z,2.70
2022-12-24T07:30:07.349Z,2.20
2022-12-24T07:32:34.396Z,2.50
2022-12-24T07:35:01.507Z,3.45
2022-12-24T07:37:28.638Z,2.70
2022-12-24T07:39:55.890Z,4.15
2022-12-24T07:42:22.984Z,2.50
2022-12-24T07:44:50.032Z,2.60
2022-12-24T07:47:17.102Z,3.10
2022-12-24T07:49:44.191Z,3.13
2022-12-24T07:52:11.474Z,2.45
2022-12-24T07:54:38.604Z,2.65
2022-12-24T07:57:05.661Z,2.42
2022-12-24T07:59:32.753Z,2.65
2022-12-24T08:01:59.928Z,3.33
2022-12-24T08:04:27.171Z,2.33
2022-12-24T08:06:54.222Z,2.47
2022-12-24T08:09:21.396Z,3.00
2022-12-24T08:11:52.281Z,2.60
2022-12-24T08:14:20.092Z,3.10
2022-12-24T08:16:47.201Z,2.28
2022-12-24T08:19:14.310Z,2.75
2022-12-24T08:21:41.539Z,3.50
2022-12-24T08:24:09.055Z,1.90
2022-12-24T08:26:36.133Z,1.85
2022-12-24T08:29:05.148Z,2.15
2022-12-24T08:31:36.764Z,3.08
2022-12-24T08:34:05.039Z,2.53
2022-12-24T08:36:32.182Z,2.28
2022-12-24T08:38:59.582Z,2.60
2022-12-24T08:41:26.630Z,2.72
2022-12-24T08:43:53.644Z,2.45
2022-12-24T08:46:20.747Z,2.58
2022-12-24T08:48:47.847Z,2.10
2022-12-24T08:51:15.282Z,2.28
2022-12-24T08:53:42.689Z,4.03
2022-12-24T08:56:11.597Z,2.20
2022-12-24T08:58:39.105Z,2.13
2022-12-24T09:01:15.585Z,1.83
2022-12-24T09:03:43.370Z,2.22
2022-12-24T09:06:11.144Z,2.38
2022-12-24T09:08:38.393Z,2.05
2022-12-24T09:11:14.709Z,2.90
2022-12-24T09:13:42.313Z,2.65
2022-12-24T09:16:09.922Z,2.53
2022-12-24T09:18:38.120Z,2.20
2022-12-24T09:21:09.079Z,1.95
2022-12-24T09:23:39.800Z,2.55
2022-12-24T09:26:21.646Z,1.88
2022-12-24T09:28:49.027Z,2.10
2022-12-24T09:31:16.869Z,2.20
2022-12-24T09:33:46.125Z,3.22
2022-12-24T09:36:13.230Z,1.95
2022-12-24T09:38:40.590Z,2.13
2022-12-24T09:41:23.530Z,2.63
2022-12-24T09:44:03.327Z,3.58
2022-12-24T09:46:40.086Z,2.72
2022-12-24T09:49:16.423Z,2.63
2022-12-24T09:51:51.638Z,2.47
2022-12-24T09:54:28.556Z,2.88
2022-12-24T09:56:59.710Z,2.33
2022-12-24T09:59:42.959Z,2.10
2022-12-24T10:02:14.320Z,2.15
2022-12-24T10:04:42.941Z,2.60
2022-12-24T10:07:28.724Z,2.42
2022-12-24T10:10:23.210Z,1.90
2022-12-24T10:13:17.079Z,2.05
2022-12-24T10:15:57.279Z,2.40
2022-12-24T10:18:51.853Z,2.75
2022-12-24T10:21:47.020Z,3.42
2022-12-24T10:24:22.550Z,2.25
2022-12-24T10:27:12.188Z,2.53
2022-12-24T10:29:43.831Z,1.90
2022-12-24T10:32:23.939Z,2.72
2022-12-24T10:35:08.556Z,2.40
2022-12-24T10:37:35.659Z,2.85
2022-12-24T10:40:04.110Z,2.90
2022-12-24T10:42:50.345Z,2.55
2022-12-24T10:45:22.161Z,2.63
2022-12-24T10:47:57.593Z,3.97
2022-12-24T10:50:51.325Z,2.85
2022-12-24T10:53:40.442Z,3.40
2022-12-24T10:56:11.820Z,3.67
2022-12-24T10:58:45.698Z,2.97
2022-12-24T11:01:13.662Z,4.90
2022-12-24T11:03:40.887Z,3.65
2022-12-24T11:06:13.534Z,3.63
2022-12-24T11:08:44.121Z,4.88
2022-12-24T11:11:17.943Z,4.47
2022-12-24T11:13:57.307Z,3.90
2022-12-24T11:16:35.827Z,3.80
2022-12-24T11:19:06.555Z,4.70
2022-12-24T11:21:40.042Z,3.53
2022-12-24T11:24:28.457Z,4.22
2022-12-24T11:27:15.605Z,5.05
2022-12-24T11:29:42.681Z,3.97
2022-12-24T11:32:23.889Z,3.33
2022-12-24T11:34:50.961Z,4.88
2022-12-24T11:37:24.291Z,4.13
2022-12-24T11:39:55.379Z,3.75
2022-12-24T11:42:38.169Z,4.82
2022-12-24T11:45:17.759Z,4.40
2022-12-24T11:47:45.068Z,4.23
2022-12-24T11:50:35.944Z,3.63
2022-12-24T11:53:19.266Z,3.95
2022-12-24T11:55:56.082Z,3.95
2022-12-24T11:58:37.902Z,4.28
2022-12-24T12:01:40.857Z,4.53
2022-12-24T12:04:19.844Z,3.40
2022-12-24T12:07:01.077Z,4.65
2022-12-24T12:09:41.309Z,4.72
2022-12-24T12:12:26.211Z,4.60
2022-12-24T12:14:58.934Z,4.03
2022-12-24T12:17:50.798Z,3.72
2022-12-24T12:20:31.516Z,3.85
2022-12-24T12:23:33.917Z,4.75
2022-12-24T12:26:11.274Z,4.72
2022-12-24T12:28:46.138Z,4.35
2022-12-24T12:31:22.872Z,5.00
2022-12-24T12:34:17.244Z,4.28
2022-12-24T12:36:51.564Z,4.63
2022-12-24T12:39:18.723Z,3.88
2022-12-24T12:42:20.342Z,5.50
2022-12-24T12:45:03.983Z,4.00
2022-12-24T12:47:55.006Z,4.15
2022-12-24T12:50:47.357Z,3.78
2022-12-24T12:53:31.191Z,3.85
2022-12-24T12:56:27.202Z,3.72
2022-12-24T12:59:10.461Z,3.67
2022-12-24T13:02:17.306Z,4.00
2022-12-24T13:05:24.110Z,3.55
2022-12-24T13:08:11.137Z,3.97
2022-12-24T13:11:03.475Z,4.00
2022-12-24T13:13:58.840Z,3.90
2022-12-24T13:16:56.823Z,3.83
2022-12-24T13:19:43.172Z,3.13
2022-12-24T13:22:18.575Z,3.45
2022-12-24T13:24:54.148Z,3.47
2022-12-24T13:27:26.853Z,3.63
2022-12-24T13:30:12.875Z,3.33
2022-12-24T13:32:52.495Z,3.55
2022-12-24T13:35:39.108Z,3.67
2022-12-24T13:38:31.816Z,4.00
2022-12-24T13:41:42.188Z,5.38
2022-12-24T13:44:19.860Z,3.15
2022-12-24T13:46:52.206Z,6.05
2022-12-24T13:49:26.990Z,4.70
2022-12-24T13:52:11.991Z,4.55
2022-12-24T13:54:41.795Z,4.18
2022-12-24T13:57:33.811Z,5.47
2022-12-24T14:00:23.069Z,4.88
2022-12-24T14:03:03.925Z,4.03
2022-12-24T14:05:53.628Z,6.20
2022-12-24T14:08:31.732Z,4.70
2022-12-24T14:11:26.070Z,4.65
2022-12-24T14:14:15.501Z,5.20
2022-12-24T14:16:48.057Z,4.93
2022-12-24T14:19:33.713Z,4.05
2022-12-24T14:22:19.445Z,5.50
2022-12-24T14:24:53.413Z,5.70
2022-12-24T14:27:29.309Z,5.22
2022-12-24T14:30:23.796Z,6.32
2022-12-24T14:32:51.965Z,5.07
2022-12-24T14:35:22.032Z,5.97
2022-12-24T14:38:00.107Z,5.28
2022-12-24T14:40:30.099Z,6.13
2022-12-24T14:43:18.570Z,6.88
2022-12-24T14:46:11.192Z,7.07
2022-12-24T14:48:50.590Z,7.40
2022-12-24T14:51:57.152Z,7.68
2022-12-24T14:54:39.496Z,7.68
2022-12-24T14:57:19.347Z,9.50
2022-12-24T14:59:54.711Z,10.25
2022-12-24T15:02:37.038Z,9.93
2022-12-24T15:05:13.282Z,9.23
2022-12-24T15:07:56.684Z,9.38
2022-12-24T15:10:33.064Z,7.78
2022-12-24T15:13:05.982Z,8.10
2022-12-24T15:15:34.297Z,7.40
2022-12-24T15:18:03.448Z,9.10
2022-12-24T15:20:31.370Z,8.30
2022-12-24T15:22:59.239Z,8.65
2022-12-24T15:25:32.219Z,8.77
2022-12-24T15:28:00.043Z,6.55
2022-12-24T15:30:30.035Z,9.45
2022-12-24T15:32:58.313Z,7.22
2022-12-24T15:35:53.365Z,8.50
2022-12-24T15:38:37.688Z,7.60
2022-12-24T15:41:15.354Z,8.45
2022-12-24T15:43:44.071Z,7.95
2022-12-24T15:46:17.859Z,9.23
2022-12-24T15:48:46.246Z,9.00
2022-12-24T15:51:13.763Z,9.32
2022-12-24T15:53:45.335Z,7.85
2022-12-24T15:56:34.943Z,7.93
2022-12-24T15:59:27.208Z,7.03
2022-12-24T16:01:54.858Z,7.85
2022-12-24T16:04:27.704Z,7.45
2022-12-24T16:07:02.968Z,6.63
2022-12-24T16:09:43.703Z,8.35
2022-12-24T16:12:24.274Z,8.25
2022-12-24T16:17:30.758Z,8.07
2022-12-24T16:20:04.629Z,7.22
2022-12-24T16:22:33.079Z,7.53
2022-12-24T16:25:02.051Z,7.55
2022-12-24T16:27:29.121Z,7.53
2022-12-24T16:29:56.177Z,8.25
2022-12-24T16:32:34.630Z,7.05
2022-12-24T16:35:03.640Z,7.60
2022-12-24T16:37:30.894Z,7.15
2022-12-24T16:39:59.180Z,8.82
2022-12-24T16:42:46.397Z,7.85
2022-12-24T16:45:13.494Z,11.00
2022-12-24T16:47:43.423Z,8.57
2022-12-24T16:50:16.353Z,8.35
2022-12-24T16:52:43.516Z,6.35
2022-12-24T16:55:14.223Z,8.35
2022-12-24T16:57:42.304Z,8.65
2022-12-24T17:00:20.180Z,9.35
2022-12-24T17:02:49.607Z,7.88
2022-12-24T17:05:17.084Z,9.13
2022-12-24T17:07:44.520Z,8.40
2022-12-24T17:10:14.320Z,9.13
2022-12-24T17:12:42.089Z,8.68
2022-12-24T17:15:09.762Z,8.98
2022-12-24T17:17:37.028Z,8.93
2022-12-24T17:20:04.934Z,9.73
2022-12-24T17:22:32.316Z,8.63
2022-12-24T17:24:59.425Z,9.05
2022-12-24T17:27:26.480Z,9.25
2022-12-24T17:29:53.926Z,8.60
2022-12-24T17:32:21.125Z,10.38
2022-12-24T17:34:48.336Z,12.38
2022-12-24T17:37:15.451Z,13.05
2022-12-24T17:39:42.480Z,10.95
2022-12-24T17:42:09.579Z,9.55
2022-12-24T17:44:36.753Z,11.45
2022-12-24T17:47:05.420Z,11.43
2022-12-24T17:49:32.674Z,12.13
2022-12-24T17:51:59.937Z,11.77
2022-12-24T17:54:27.261Z,12.35
2022-12-24T17:56:54.348Z,13.43
2022-12-24T17:59:21.533Z,10.48
2022-12-24T18:01:48.764Z,11.23
2022-12-24T18:04:15.923Z,10.70
2022-12-24T18:06:49.043Z,13.48
2022-12-24T18:09:17.296Z,12.80
2022-12-24T18:11:44.496Z,12.30
2022-12-24T18:14:14.262Z,14.40
2022-12-24T18:16:42.914Z,13.38
2022-12-24T18:19:12.172Z,10.80
2022-12-24T18:21:40.010Z,14.30
2022-12-24T18:24:07.365Z,16.13
2022-12-24T18:26:34.590Z,12.77
2022-12-24T18:29:04.828Z,15.20
2022-12-24T18:31:33.969Z,15.98
2022-12-24T18:34:02.727Z,16.20
2022-12-24T18:36:29.883Z,16.38
2022-12-24T18:38:57.582Z,16.02
2022-12-24T18:41:27.335Z,15.43
2022-12-24T18:43:55.406Z,16.92
2022-12-24T18:46:25.822Z,15.85
2022-12-24T18:51:25.070Z,16.25
2022-12-24T18:53:52.097Z,15.63
2022-12-24T18:56:24.287Z,13.85
2022-12-24T18:59:00.464Z,15.57
2022-12-24T19:01:33.565Z,16.33
2022-12-24T19:04:01.212Z,16.58
2022-12-24T19:06:28.323Z,16.50
2022-12-24T19:08:58.914Z,15.45
2022-12-24T19:11:29.284Z,15.20
2022-12-24T19:13:58.196Z,16.77
2022-12-24T19:16:26.005Z,16.98
2022-12-24T19:18:53.307Z,19.08
2022-12-24T19:21:20.366Z,19.02
2022-12-24T19:23:48.279Z,16.38
2022-12-24T19:26:16.917Z,15.63
2022-12-24T19:28:44.646Z,16.58
2022-12-24T19:31:14.571Z,18.15
2022-12-24T19:33:44.189Z,17.23
2022-12-24T19:36:15.213Z,18.20
2022-12-24T19:38:42.411Z,19.20
2022-12-24T19:41:18.696Z,17.02
2022-12-24T19:43:52.010Z,17.65
2022-12-24T19:46:24.401Z,17.90
2022-12-24T19:48:54.358Z,17.83
2022-12-24T19:51:22.781Z,17.05
2022-12-24T19:53:50.201Z,18.27
2022-12-24T19:56:19.535Z,16.13
2022-12-24T19:58:46.962Z,19.15
2022-12-24T20:01:20.831Z,17.45
2022-12-24T20:03:48.973Z,19.80
2022-12-24T20:06:18.301Z,19.20
2022-12-24T20:08:45.961Z,18.55
2022-12-24T20:11:15.708Z,18.25
2022-12-24T20:13:43.382Z,16.35
2022-12-24T20:16:14.656Z,17.85
2022-12-24T20:18:42.129Z,16.55
2022-12-24T20:21:12.323Z,19.05
2022-12-24T20:23:40.778Z,19.13
2022-12-24T20:26:11.086Z,17.45
2022-12-24T20:28:38.810Z,19.77
2022-12-24T20:31:21.959Z,20.00
2022-12-24T20:33:49.612Z,17.38
2022-12-24T20:36:19.215Z,15.45
2022-12-24T20:38:47.259Z,18.90
2022-12-24T20:41:16.606Z,17.83
2022-12-24T20:43:48.299Z,17.25
2022-12-24T20:46:17.442Z,16.40
2022-12-24T20:48:45.042Z,19.02
2022-12-24T20:51:22.793Z,17.98
2022-12-24T20:53:51.731Z,18.02
2022-12-24T20:56:18.993Z,18.95
2022-12-24T20:58:46.462Z,18.33
2022-12-24T21:01:21.731Z,17.73
2022-12-24T21:03:48.964Z,17.73
2022-12-24T21:06:18.103Z,16.60
2022-12-24T21:08:46.336Z,17.75
2022-12-24T21:11:33.299Z,18.23
2022-12-24T21:14:02.311Z,17.45
2022-12-24T21:16:34.512Z,19.17
2022-12-24T21:19:02.136Z,17.92
2022-12-24T21:21:29.315Z,15.57
2022-12-24T21:23:56.441Z,18.02
2022-12-24T21:26:23.921Z,19.90
2022-12-24T21:28:51.049Z,18.88
2022-12-24T21:31:18.850Z,16.50
2022-12-24T21:33:46.191Z,18.63
2022-12-24T21:36:14.665Z,18.13
2022-12-24T21:38:42.305Z,18.73
2022-12-24T21:41:12.017Z,18.70
2022-12-24T21:43:39.692Z,21.40
2022-12-24T21:46:12.478Z,19.95
2022-12-24T21:49:00.137Z,17.25
2022-12-24T21:51:28.149Z,18.75
2022-12-24T21:54:15.540Z,18.35
2022-12-24T21:57:02.568Z,19.60
2022-12-24T21:59:29.883Z,19.13
2022-12-24T22:01:57.697Z,16.42
2022-12-24T22:04:25.667Z,19.55
2022-12-24T22:07:13.218Z,20.33
2022-12-24T22:10:00.406Z,20.60
2022-12-24T22:12:31.280Z,18.02
2022-12-24T22:14:58.757Z,19.08
2022-12-24T22:17:27.007Z,20.70
2022-12-24T22:19:55.490Z,19.85
2022-12-24T22:22:23.248Z,18.88
2022-12-24T22:24:50.422Z,18.10
2022-12-24T22:27:17.686Z,21.08
2022-12-24T22:29:44.821Z,19.35
2022-12-24T22:32:12.052Z,20.27
2022-12-24T22:34:39.206Z,21.13
2022-12-24T22:37:06.436Z,19.58
2022-12-24T22:39:36.251Z,22.02
2022-12-24T22:42:03.726Z,21.08
2022-12-24T22:44:30.822Z,20.48
2022-12-24T22:46:57.989Z,19.70
2022-12-24T22:49:25.116Z,20.27
2022-12-24T22:51:52.396Z,19.45
2022-12-24T22:54:19.406Z,21.50
2022-12-24T22:56:46.474Z,22.33
2022-12-24T22:59:14.302Z,19.83
2022-12-24T23:01:44.247Z,20.17
2022-12-24T23:04:11.992Z,20.17
2022-12-24T23:06:39.950Z,20.42
2022-12-24T23:09:09.414Z,22.80
2022-12-24T23:11:36.510Z,19.27
2022-12-24T23:14:23.409Z,23.65
2022-12-24T23:16:50.688Z,20.55
2022-12-24T23:19:17.814Z,20.35
2022-12-24T23:21:44.889Z,20.27
2022-12-24T23:24:13.516Z,20.50
2022-12-24T23:26:40.849Z,19.35
2022-12-24T23:29:07.895Z,18.73
2022-12-24T23:31:35.180Z,18.73
2022-12-24T23:34:02.548Z,20.20
2022-12-24T23:36:30.002Z,19.80
2022-12-24T23:38:57.833Z,19.98
2022-12-24T23:41:25.004Z,18.52
2022-12-24T23:43:52.315Z,19.00
2022-12-24T23:46:20.507Z,19.80
2022-12-24T23:48:47.858Z,18.98
2022-12-24T23:51:23.667Z,20.35
2022-12-24T23:53:52.851Z,18.45
2022-12-24T23:56:20.582Z,20.23
2022-12-24T23:58:48.208Z,19.08
